Nova — SVA3643 — position and weather

sailwx.info

Track history (hours):
 
Tides and Currents Weather Stations Pressure Air Temp Water Temp Dewpoint Dewpoint Depression Visibility Wind Speed Wind Dir Waves Ship Positions

Nova

Last reported at 2018-Jul-14 18:06 UTC. Time now 2018-Jul-17 22:56 UTC.
Position N 37°37' E 023°34'.

Length 19 m.

Type: Sailing vessel. MMSI: 241092000.

Date/timePositionNaut miles runAvg speedWind from/ knotsBaromVisibWave heightAir tempDewpointWater temp
2018-Jul-14 18:06N 37°37' E 023°34'1 8.2
2018-Jul-14 18:00N 37°38' E 023°34'4 7.7
2018-Jul-14 17:31N 37°42' E 023°35'4 7.3
2018-Jul-14 17:00N 37°45' E 023°36'10 1.2
2018-Jul-14 07:55N 37°55' E 023°42'1 2.2
2018-Jul-14 07:31N 37°54' E 023°42'4 7.6
2018-Jul-14 07:00N 37°51' E 023°44'0 0.0
2018-Jul-13 16:37N 37°50' E 023°45'0 0.2
2018-Jul-13 16:28N 37°50' E 023°45'3 6.2
2018-Jul-13 16:00N 37°49' E 023°42'4 7.5
2018-Jul-13 15:30N 37°46' E 023°39'  
2018-Jul-10 11:20N 37°09' E 024°52'3 8.2
2018-Jul-10 10:59N 37°09' E 024°56'4 7.9
2018-Jul-10 10:29N 37°09' E 025°01'2 4.8
2018-Jul-10 09:59N 37°08' E 025°03'3 5.2
2018-Jul-10 09:30N 37°06' E 025°05'7 0.4
2018-Jul-09 14:17N 37°09' E 025°13'15 0.5
2018-Jul-08 07:53N 37°24' E 025°16'2 4.8
2018-Jul-08 07:31N 37°22' E 025°15'3 0.1
2018-Jul-07 09:24N 37°24' E 025°13'0 1.1
2018-Jul-07 08:59N 37°24' E 025°13'4 7.7
2018-Jul-07 08:30N 37°25' E 025°08'16 0.7
2018-Jul-06 10:12N 37°29' E 024°49'2 8.7
2018-Jul-06 10:00N 37°29' E 024°47'  
Track history (hours):
 
Tides and Currents Weather Stations Pressure Air Temp Water Temp Dewpoint Dewpoint Depression Visibility Wind Speed Wind Dir Waves Ship Positions

Nova

Last reported at 2018-Jul-14 18:06 UTC. Time now 2018-Jul-17 22:56 UTC.
Position N 37°37' E 023°34'.

Length 19 m.

Type: Sailing vessel. MMSI: 241092000.

Date/timePositionNaut miles runAvg speedWind from/ knotsBaromVisibWave heightAir tempDewpointWater temp
2018-Jul-14 18:06N 37°37' E 023°34'1 8.2
2018-Jul-14 18:00N 37°38' E 023°34'4 7.7
2018-Jul-14 17:31N 37°42' E 023°35'4 7.3
2018-Jul-14 17:00N 37°45' E 023°36'10 1.2
2018-Jul-14 07:55N 37°55' E 023°42'1 2.2
2018-Jul-14 07:31N 37°54' E 023°42'4 7.6
2018-Jul-14 07:00N 37°51' E 023°44'0 0.0
2018-Jul-13 16:37N 37°50' E 023°45'0 0.2
2018-Jul-13 16:28N 37°50' E 023°45'3 6.2
2018-Jul-13 16:00N 37°49' E 023°42'4 7.5
2018-Jul-13 15:30N 37°46' E 023°39'  
2018-Jul-10 11:20N 37°09' E 024°52'3 8.2
2018-Jul-10 10:59N 37°09' E 024°56'4 7.9
2018-Jul-10 10:29N 37°09' E 025°01'2 4.8
2018-Jul-10 09:59N 37°08' E 025°03'3 5.2
2018-Jul-10 09:30N 37°06' E 025°05'7 0.4
2018-Jul-09 14:17N 37°09' E 025°13'15 0.5
2018-Jul-08 07:53N 37°24' E 025°16'2 4.8
2018-Jul-08 07:31N 37°22' E 025°15'3 0.1
2018-Jul-07 09:24N 37°24' E 025°13'0 1.1
2018-Jul-07 08:59N 37°24' E 025°13'4 7.7
2018-Jul-07 08:30N 37°25' E 025°08'16 0.7
2018-Jul-06 10:12N 37°29' E 024°49'2 8.7
2018-Jul-06 10:00N 37°29' E 024°47'  

Dump ship's entire track history